Time;durP1;ratioP1;P1;durP2;ratioP2;P2;SDS_P1;SDS_P2;PMS_P1;PMS_P2;Temp;Humidity;BMP_temperature;BMP_pressure;BME280_temperature;BME280_humidity;BME280_pressure;Samples;Min_cycle;Max_cycle;Signal;HPM_P1;HPM_P2
2022/12/07 00:19:41;;;;;;;10.73;7.27;;;;;;;-4.64;78.40;100157.55;1698740;76;26505;-83
2022/12/07 00:22:07;;;;;;;7.80;5.60;;;;;;;-4.64;78.37;100161.48;1608998;88;26296;-78
2022/12/07 00:24:34;;;;;;;12.17;7.77;;;;;;;-4.57;78.08;100152.56;1586504;88;21200;-76
2022/12/07 00:27:01;;;;;;;15.13;6.83;;;;;;;-4.49;77.56;100149.56;1604163;88;21358;-78
2022/12/07 00:29:27;;;;;;;10.30;7.33;;;;;;;-4.41;77.65;100144.91;1589792;88;21058;-78
2022/12/07 00:31:53;;;;;;;18.23;7.03;;;;;;;-4.30;77.57;100137.34;1585221;89;21068;-77
2022/12/07 00:34:21;;;;;;;13.80;8.27;;;;;;;-4.19;77.54;100122.25;1608828;87;20970;-77
2022/12/07 00:36:47;;;;;;;18.30;7.93;;;;;;;-4.06;77.15;100121.91;1607816;88;21023;-75
2022/12/07 00:39:14;;;;;;;9.33;7.27;;;;;;;-3.90;76.98;100130.47;1606719;88;21240;-75
2022/12/07 00:41:41;;;;;;;10.07;7.50;;;;;;;-3.76;76.21;100123.41;1599187;88;21209;-75
2022/12/07 00:44:07;;;;;;;14.83;8.13;;;;;;;-3.68;76.02;100115.59;1613060;87;21170;-74
2022/12/07 00:46:33;;;;;;;15.30;8.87;;;;;;;-3.62;75.53;100105.81;1631024;87;21046;-74
2022/12/07 00:49:00;;;;;;;14.13;7.23;;;;;;;-3.57;75.27;100110.97;1629751;86;21156;-72
2022/12/07 00:51:26;;;;;;;11.67;9.50;;;;;;;-3.51;74.89;100106.92;1631750;86;21141;-72
2022/12/07 00:53:53;;;;;;;12.93;8.60;;;;;;;-3.49;74.86;100103.64;1618624;87;21138;-70
2022/12/07 00:56:28;;;;;;;15.07;6.63;;;;;;;-3.41;74.74;100109.48;1596388;86;21058;-71
2022/12/07 00:59:00;;;;;;;12.93;5.60;;;;;;;-3.41;74.42;100101.59;1602203;88;21001;-74
2022/12/07 01:01:30;;;;;;;15.28;8.05;;;;;;;-3.39;74.32;100104.87;1599996;88;21207;-71
2022/12/07 01:03:56;;;;;;;12.07;8.33;;;;;;;-3.39;74.40;100107.51;1599666;88;21124;-75
2022/12/07 01:06:23;;;;;;;11.07;6.37;;;;;;;-3.34;74.57;100103.45;1619787;86;21035;-69
2022/12/07 01:08:50;;;;;;;10.07;7.03;;;;;;;-3.28;74.73;100102.03;1632389;86;21071;-80
2022/12/07 01:11:19;;;;;;;17.53;7.83;;;;;;;-3.22;74.67;100097.48;1636178;87;21111;-73
2022/12/07 01:13:46;;;;;;;10.17;7.17;;;;;;;-3.16;74.61;100096.86;1610049;87;21194;-72
2022/12/07 01:16:15;;;;;;;14.60;7.53;;;;;;;-3.07;74.79;100091.20;1607775;87;21144;-74
2022/12/07 01:18:41;;;;;;;8.90;7.17;;;;;;;-3.00;74.68;100077.27;1621321;88;21142;-76
2022/12/07 01:21:13;;;;;;;18.33;9.47;;;;;;;-2.93;74.55;100082.27;1629142;88;21070;-75
2022/12/07 01:23:40;;;;;;;12.40;8.10;;;;;;;-2.90;74.65;100076.69;1627257;88;21116;-77
2022/12/07 01:26:10;;;;;;;20.10;8.20;;;;;;;-2.83;74.92;100079.54;1629875;87;21610;-76
2022/12/07 01:28:36;;;;;;;11.77;7.40;;;;;;;-2.80;74.77;100070.01;1626319;88;21309;-77
2022/12/07 01:31:07;;;;;;;10.70;7.07;;;;;;;-2.84;74.99;100067.36;1629886;87;21048;-79
2022/12/07 01:33:35;;;;;;;10.47;7.03;;;;;;;-2.89;75.53;100061.73;1630274;86;21051;-78
2022/12/07 01:36:06;;;;;;;11.40;6.70;;;;;;;-2.94;75.90;100058.24;1629801;88;21142;-75
2022/12/07 01:38:33;;;;;;;12.90;7.73;;;;;;;-2.96;76.55;100050.16;1628913;88;21379;-80
2022/12/07 01:41:00;;;;;;;14.80;7.43;;;;;;;-2.98;76.85;100048.19;1628547;88;21142;-77
2022/12/07 01:43:30;;;;;;;6.50;5.37;;;;;;;-3.02;77.42;100048.96;1627702;88;21077;-74
2022/12/07 01:45:57;;;;;;;13.20;7.33;;;;;;;-3.03;78.09;100042.56;1629711;88;20920;-74
2022/12/07 01:48:39;;;;;;;14.47;7.60;;;;;;;-2.97;78.23;100037.48;1607262;88;21381;-75
2022/12/07 01:51:12;;;;;;;11.47;6.63;;;;;;;-2.96;78.53;100041.77;1629716;88;21083;-74
2022/12/07 01:53:42;;;;;;;9.93;6.75;;;;;;;-3.00;78.77;100036.98;1610956;88;20971;-76
2022/12/07 01:56:09;;;;;;;8.57;6.33;;;;;;;-2.96;78.97;100033.05;1629251;87;21119;-75
2022/12/07 01:58:35;;;;;;;15.00;8.47;;;;;;;-2.94;79.16;100034.56;1629067;88;21667;-75
2022/12/07 02:01:04;;;;;;;9.30;6.33;;;;;;;-2.92;79.06;100033.07;1612110;86;21579;-74
2022/12/07 02:03:36;;;;;;;13.63;7.20;;;;;;;-2.91;79.18;100038.19;1626815;86;21117;-75
2022/12/07 02:06:02;;;;;;;13.60;8.60;;;;;;;-2.90;79.08;100040.34;1608486;88;21067;-74
2022/12/07 02:08:28;;;;;;;14.17;8.13;;;;;;;-2.82;79.17;100030.67;1612464;88;21059;-76
2022/12/07 02:10:55;;;;;;;12.97;8.03;;;;;;;-2.71;79.13;100037.00;1626865;87;21074;-74
2022/12/07 02:13:29;;;;;;;9.23;7.27;;;;;;;-2.66;78.89;100033.90;1635376;86;21103;-75
2022/12/07 06:21:27;;;;;;;15.93;8.60;;;;;;;-3.94;96.72;99881.70;1688842;79;27086;-73
2022/12/07 06:23:53;;;;;;;12.83;7.33;;;;;;;-3.96;96.52;99879.22;1703951;82;20995;-72
2022/12/07 06:26:20;;;;;;;17.93;8.83;;;;;;;-3.89;96.48;99884.70;1716225;82;22137;-75
2022/12/07 06:28:47;;;;;;;14.43;9.43;;;;;;;-3.82;96.41;99878.33;1718837;82;21657;-75
2022/12/07 06:31:14;;;;;;;12.67;8.87;;;;;;;-3.76;96.23;99877.23;1704486;83;21557;-73
2022/12/07 06:33:43;;;;;;;15.10;9.30;;;;;;;-3.72;96.10;99872.00;1706976;82;22204;-73
2022/12/07 06:36:10;;;;;;;14.97;9.47;;;;;;;-3.72;95.91;99878.57;1709288;84;20974;-74
2022/12/07 06:38:36;;;;;;;15.30;8.40;;;;;;;-3.64;96.01;99865.97;1700144;84;21182;-73
2022/12/07 06:41:04;;;;;;;10.63;8.00;;;;;;;-3.58;95.97;99878.49;1695727;83;20974;-72
2022/12/07 06:43:30;;;;;;;17.37;7.67;;;;;;;-3.50;95.94;99879.05;1682337;83;20959;-73
2022/12/07 06:45:56;;;;;;;20.93;9.50;;;;;;;-3.50;95.77;99877.22;1705128;82;20999;-73
2022/12/07 06:48:23;;;;;;;16.83;8.10;;;;;;;-3.47;95.81;99869.05;1695997;82;21051;-73
2022/12/07 06:50:50;;;;;;;11.43;8.63;;;;;;;-3.35;96.05;99865.64;1696498;83;21256;-73
2022/12/07 06:53:18;;;;;;;17.83;8.10;;;;;;;-3.24;95.89;99870.63;1694883;84;21078;-73
2022/12/07 06:55:44;;;;;;;14.27;9.23;;;;;;;-3.22;95.56;99871.31;1694273;84;21138;-74
2022/12/07 06:58:11;;;;;;;21.60;11.37;;;;;;;-3.17;95.61;99866.41;1703745;82;21035;-73
2022/12/07 07:00:37;;;;;;;18.67;10.23;;;;;;;-3.22;95.51;99868.69;1700936;83;21030;-74
2022/12/07 07:03:04;;;;;;;19.60;11.53;;;;;;;-3.27;96.05;99860.44;1698544;82;21606;-73
2022/12/07 07:05:30;;;;;;;16.67;10.67;;;;;;;-3.30;96.27;99867.30;1709732;83;21510;-73
2022/12/07 07:07:57;;;;;;;17.30;11.00;;;;;;;-3.39;96.62;99859.88;1709828;83;21018;-73
2022/12/07 07:10:23;;;;;;;15.93;10.47;;;;;;;-3.37;97.21;99858.41;1670357;85;21033;-74
2022/12/07 07:12:49;;;;;;;14.67;7.70;;;;;;;-3.38;97.68;99862.84;1678324;83;21139;-75
2022/12/07 07:15:17;;;;;;;20.40;10.20;;;;;;;-3.33;98.02;99860.58;1700138;83;21504;-73
2022/12/07 07:17:43;;;;;;;14.73;9.63;;;;;;;-3.29;98.06;99857.95;1695075;84;22218;-73
2022/12/07 07:20:12;;;;;;;22.43;10.47;;;;;;;-3.28;98.19;99862.73;1690033;84;20997;-74
2022/12/07 07:22:39;;;;;;;21.60;10.07;;;;;;;-3.28;98.30;99865.36;1662520;85;21048;-74
2022/12/07 07:25:08;;;;;;;23.13;12.17;;;;;;;-3.30;98.43;99857.62;1686700;83;21379;-85
2022/12/07 07:27:37;;;;;;;10.47;8.53;;;;;;;-3.27;98.87;99857.81;1669665;85;21349;-79
2022/12/07 07:30:07;;;;;;;13.10;9.63;;;;;;;-3.24;99.08;99858.31;1684473;84;21080;-78
2022/12/07 07:32:33;;;;;;;12.67;9.20;;;;;;;-3.20;99.20;99854.87;1686421;85;20965;-77
2022/12/07 07:35:02;;;;;;;16.80;10.83;;;;;;;-3.20;99.16;99854.38;1663047;85;20997;-76
2022/12/07 07:37:30;;;;;;;20.20;10.63;;;;;;;-3.13;99.34;99852.78;1686045;84;21279;-74
2022/12/07 07:39:56;;;;;;;16.93;11.27;;;;;;;-3.15;99.20;99841.58;1685015;83;21176;-79
2022/12/07 07:42:23;;;;;;;21.13;11.33;;;;;;;-3.07;99.37;99853.96;1685831;83;21554;-80
2022/12/07 07:44:50;;;;;;;19.63;12.47;;;;;;;-2.99;99.45;99852.67;1658044;85;21058;-82
2022/12/07 07:47:18;;;;;;;19.00;12.23;;;;;;;-2.98;99.13;99856.95;1689668;83;21084;-81
2022/12/07 07:49:48;;;;;;;18.33;11.57;;;;;;;-2.94;99.07;99846.92;1666017;84;21066;-80
2022/12/07 07:52:28;;;;;;;19.07;10.70;;;;;;;-3.01;98.84;99851.98;1685904;83;21353;-81
2022/12/07 07:55:00;;;;;;;15.97;9.47;;;;;;;-3.04;98.98;99850.17;1684408;83;21023;-80
2022/12/07 07:57:28;;;;;;;15.47;10.77;;;;;;;-2.97;99.22;99854.63;1683527;84;21015;-75
2022/12/07 07:59:59;;;;;;;17.43;10.13;;;;;;;-2.90;99.24;99847.77;1656929;85;21002;-86
2022/12/07 08:02:29;;;;;;;12.10;10.17;;;;;;;-2.90;99.12;99850.39;1683879;83;21048;-84
2022/12/07 08:05:03;;;;;;;15.28;11.50;;;;;;;-2.98;99.22;99853.01;1662708;85;20993;-82
2022/12/07 08:07:31;;;;;;;21.87;16.30;;;;;;;-2.99;99.48;99847.41;1687241;83;21012;-76
2022/12/07 08:10:03;;;;;;;16.77;12.43;;;;;;;-3.00;99.74;99847.06;1660726;85;21590;-81
2022/12/07 08:12:30;;;;;;;17.87;9.73;;;;;;;-2.93;100.00;99844.14;1682095;83;21035;-78
2022/12/07 08:14:57;;;;;;;14.57;10.47;;;;;;;-2.86;100.00;99845.14;1681627;83;21031;-72
2022/12/07 08:17:26;;;;;;;19.37;11.30;;;;;;;-2.88;99.99;99838.41;1683993;83;21103;-72
2022/12/07 08:19:52;;;;;;;15.90;11.13;;;;;;;-2.91;100.00;99833.44;1654081;85;21004;-72
2022/12/07 08:22:19;;;;;;;20.87;12.77;;;;;;;-2.89;100.00;99825.73;1658966;85;21064;-72
2022/12/07 08:24:45;;;;;;;18.67;13.03;;;;;;;-2.87;100.00;99826.87;1685757;84;21125;-71
2022/12/07 08:27:12;;;;;;;18.33;12.20;;;;;;;-2.83;100.00;99826.38;1638178;86;21546;-69
2022/12/07 08:29:42;;;;;;;17.70;11.13;;;;;;;-2.84;100.00;99828.70;1663331;86;21123;-80
2022/12/07 08:32:16;;;;;;;24.33;15.10;;;;;;;-2.81;100.00;99821.80;1629905;86;21090;-79
2022/12/07 08:34:46;;;;;;;21.57;13.08;;;;;;;-2.79;100.00;99826.91;1634041;86;21022;-83
2022/12/07 08:37:21;;;;;;;21.97;12.53;;;;;;;-2.79;100.00;99822.47;1662843;85;21063;-81
2022/12/07 08:39:48;;;;;;;17.80;12.47;;;;;;;-2.76;100.00;99821.31;1662215;86;21122;-82
2022/12/07 08:42:18;;;;;;;18.20;11.20;;;;;;;-2.68;100.00;99817.37;1670190;84;21150;-78
2022/12/07 08:44:46;;;;;;;19.67;11.20;;;;;;;-2.68;100.00;99806.84;1647920;84;21022;-82
2022/12/07 08:47:12;;;;;;;20.73;13.83;;;;;;;-2.68;100.00;99811.62;1691902;84;21332;-67
2022/12/07 08:49:44;;;;;;;17.10;11.90;;;;;;;-2.68;100.00;99803.72;1661922;84;21131;-78
2022/12/07 08:52:12;;;;;;;18.37;13.57;;;;;;;-2.69;100.00;99810.00;1662233;86;20941;-77
2022/12/07 08:54:41;;;;;;;16.23;12.30;;;;;;;-2.69;100.00;99798.64;1663838;86;21070;-77
2022/12/07 08:57:09;;;;;;;20.73;13.30;;;;;;;-2.64;100.00;99798.45;1664005;86;21042;-79
2022/12/07 08:59:38;;;;;;;25.83;15.87;;;;;;;-2.57;100.00;99794.69;1663910;86;21054;-74
2022/12/07 09:02:09;;;;;;;24.97;16.73;;;;;;;-2.53;100.00;99794.69;1662053;84;21683;-77
2022/12/07 09:04:36;;;;;;;21.97;14.87;;;;;;;-2.51;100.00;99790.59;1635759;86;21075;-78
2022/12/07 09:07:03;;;;;;;23.43;15.50;;;;;;;-2.42;100.00;99788.28;1682508;84;21260;-78
2022/12/07 09:09:30;;;;;;;17.27;13.37;;;;;;;-2.40;100.00;99787.64;1691644;84;21025;-81
2022/12/07 09:12:00;;;;;;;20.57;14.10;;;;;;;-2.37;100.00;99791.25;1652382;86;21067;-77
2022/12/07 09:14:26;;;;;;;22.87;14.30;;;;;;;-2.36;100.00;99777.10;1683205;84;21023;-77
2022/12/07 09:16:54;;;;;;;24.53;14.03;;;;;;;-2.33;100.00;99775.45;1691849;84;21594;-73
2022/12/07 09:19:21;;;;;;;22.50;16.10;;;;;;;-2.29;100.00;99777.58;1674030;84;21110;-74
2022/12/07 09:21:53;;;;;;;19.23;15.03;;;;;;;-2.19;100.00;99776.09;1668487;84;21081;-80
2022/12/07 09:24:20;;;;;;;18.77;12.47;;;;;;;-2.09;100.00;99774.60;1619018;86;21138;-81
2022/12/07 09:26:47;;;;;;;17.53;14.60;;;;;;;-2.08;100.00;99765.72;1647206;85;21069;-81
2022/12/07 09:29:22;;;;;;;17.27;13.27;;;;;;;-2.07;100.00;99768.19;1674911;84;21086;-83
2022/12/07 09:31:49;;;;;;;22.87;16.40;;;;;;;-2.04;100.00;99760.44;1653038;86;21241;-78
2022/12/07 09:34:15;;;;;;;26.00;14.40;;;;;;;-2.09;100.00;99759.62;1654439;86;21061;-81
2022/12/07 09:36:44;;;;;;;17.80;13.40;;;;;;;-2.09;100.00;99750.40;1668862;86;20983;-80
2022/12/07 09:39:11;;;;;;;19.07;14.27;;;;;;;-2.07;100.00;99756.83;1649333;85;21043;-82
2022/12/07 09:41:41;;;;;;;29.50;17.17;;;;;;;-2.02;100.00;99754.02;1693204;84;21706;-77
2022/12/07 09:44:14;;;;;;;23.73;16.47;;;;;;;-1.97;100.00;99753.03;1642008;85;22190;-81
2022/12/07 09:46:42;;;;;;;19.47;15.57;;;;;;;-1.93;100.00;99746.92;1666618;86;21096;-78
2022/12/07 09:49:20;;;;;;;20.43;16.90;;;;;;;-1.91;100.00;99742.28;1648603;86;21634;-76
2022/12/07 09:51:47;;;;;;;23.37;19.00;;;;;;;-1.90;100.00;99746.08;1637807;86;21544;-73
2022/12/07 14:30:41;;;;;;;64.00;43.73;;;;;;;-2.38;100.00;99686.41;1749686;79;27135;-73
2022/12/07 14:33:08;;;;;;;53.67;38.17;;;;;;;-2.40;100.00;99684.42;1641496;82;20996;-76
2022/12/07 14:35:37;;;;;;;53.80;35.53;;;;;;;-2.37;100.00;99672.25;1730481;82;21575;-74
2022/12/07 14:38:03;;;;;;;55.83;34.80;;;;;;;-2.33;100.00;99672.24;1673348;83;20956;-74
2022/12/07 14:40:32;;;;;;;61.80;36.33;;;;;;;-2.28;100.00;99669.93;1720732;82;21801;-69
2022/12/07 14:43:03;;;;;;;50.07;33.90;;;;;;;-2.21;100.00;99672.72;1700627;82;21139;-71
2022/12/07 14:45:30;;;;;;;45.03;31.20;;;;;;;-2.12;100.00;99672.20;1725366;82;21763;-76
2022/12/07 14:47:59;;;;;;;43.63;30.17;;;;;;;-2.02;100.00;99664.92;1725510;83;21158;-75
2022/12/07 14:50:26;;;;;;;42.00;30.03;;;;;;;-1.97;100.00;99663.92;1724535;82;20924;-75
2022/12/07 14:52:57;;;;;;;38.30;28.53;;;;;;;-1.93;100.00;99655.50;1730853;82;20951;-76
2022/12/07 14:55:29;;;;;;;44.23;33.00;;;;;;;-1.84;100.00;99646.57;1722309;82;21102;-74
2022/12/07 14:57:59;;;;;;;39.77;26.47;;;;;;;-1.73;100.00;99633.52;1733699;82;20940;-78
2022/12/07 15:00:27;;;;;;;47.20;26.20;;;;;;;-1.63;100.00;99630.14;1730857;82;21390;-74
2022/12/07 15:02:54;;;;;;;38.07;27.80;;;;;;;-1.62;100.00;99627.01;1731179;82;21020;-75
2022/12/07 15:05:20;;;;;;;40.13;28.10;;;;;;;-1.57;100.00;99625.99;1735489;81;21102;-75
2022/12/07 15:07:47;;;;;;;39.30;27.10;;;;;;;-1.53;100.00;99629.92;1711616;82;21048;-71
2022/12/07 15:10:21;;;;;;;41.00;29.67;;;;;;;-1.56;100.00;99624.52;1720133;81;21056;-71
2022/12/07 15:12:48;;;;;;;32.23;25.73;;;;;;;-1.54;100.00;99629.63;1727657;82;21056;-72
2022/12/07 15:15:16;;;;;;;32.77;24.10;;;;;;;-1.53;100.00;99624.64;1734158;82;21016;-74
2022/12/07 15:17:43;;;;;;;41.30;27.97;;;;;;;-1.47;100.00;99630.06;1734647;82;21627;-74
2022/12/07 15:20:13;;;;;;;34.17;25.97;;;;;;;-1.45;100.00;99614.07;1722266;82;21147;-71
2022/12/07 15:22:40;;;;;;;36.30;26.37;;;;;;;-1.40;100.00;99617.83;1719473;82;21043;-70
2022/12/07 15:25:09;;;;;;;35.80;26.57;;;;;;;-1.39;100.00;99617.34;1712973;80;21236;-76
2022/12/07 15:27:38;;;;;;;36.20;27.10;;;;;;;-1.44;100.00;99619.15;1663129;84;35728;-79
2022/12/07 15:30:07;;;;;;;37.90;24.07;;;;;;;-1.50;100.00;99633.05;1703996;82;21013;-77
2022/12/07 15:32:34;;;;;;;34.97;25.10;;;;;;;-1.54;100.00;99625.66;1669175;83;21077;-70
2022/12/07 15:35:01;;;;;;;39.53;19.20;;;;;;;-1.60;100.00;99629.81;1711147;83;21088;-70
2022/12/07 15:37:28;;;;;;;33.13;24.80;;;;;;;-1.61;100.00;99626.84;1748835;79;21278;-69
2022/12/07 15:39:58;;;;;;;34.00;22.83;;;;;;;-1.58;100.00;99623.05;1756310;79;21061;-69
2022/12/07 15:42:24;;;;;;;39.90;26.17;;;;;;;-1.51;100.00;99627.94;1767928;80;20976;-71
2022/12/07 15:45:03;;;;;;;35.47;26.13;;;;;;;-1.53;100.00;99632.56;1741006;80;21175;-73
2022/12/07 15:47:36;;;;;;;31.30;23.90;;;;;;;-1.53;100.00;99641.78;1731262;80;21095;-72
2022/12/07 15:50:08;;;;;;;30.75;22.80;;;;;;;-1.47;100.00;99645.05;1751016;79;21252;-67
2022/12/07 15:52:35;;;;;;;;;;;;;;;-1.44;100.00;99644.20;1740445;80;21516;-68
2022/12/07 15:55:03;;;;;;;36.33;24.00;;;;;;;-1.45;100.00;99637.31;1759162;80;20138;-67
2022/12/07 15:57:32;;;;;;;40.03;26.57;;;;;;;-1.46;100.00;99646.70;1753645;80;22150;-67
2022/12/07 15:59:59;;;;;;;51.63;30.07;;;;;;;-1.42;100.00;99642.23;1749222;80;22284;-72
2022/12/07 16:02:25;;;;;;;44.60;28.13;;;;;;;-1.46;100.00;99645.39;1756575;80;21106;-69
2022/12/07 16:04:53;;;;;;;53.70;29.67;;;;;;;-1.46;100.00;99642.25;1756727;80;21518;-72
2022/12/07 16:07:20;;;;;;;40.87;27.00;;;;;;;-1.40;100.00;99648.66;1752645;80;21009;-71
2022/12/07 16:09:47;;;;;;;40.27;27.83;;;;;;;-1.40;100.00;99648.16;1745190;80;21091;-72
2022/12/07 16:12:15;;;;;;;32.57;22.70;;;;;;;-1.36;100.00;99661.81;1747584;80;21018;-73
2022/12/07 16:14:43;;;;;;;35.90;23.77;;;;;;;-1.38;100.00;99662.47;1743837;80;21145;-74
2022/12/07 16:17:09;;;;;;;35.93;25.47;;;;;;;-1.34;100.00;99663.77;1756404;79;21685;-74
2022/12/07 16:19:37;;;;;;;37.77;25.33;;;;;;;-1.33;100.00;99661.45;1725716;80;21006;-72
2022/12/07 16:22:09;;;;;;;33.43;24.43;;;;;;;-1.27;100.00;99658.63;1745855;80;22263;-78
2022/12/07 16:24:36;;;;;;;32.40;22.90;;;;;;;-1.19;100.00;99659.88;1727378;81;21502;-79
2022/12/07 16:27:02;;;;;;;34.17;23.50;;;;;;;-1.13;100.00;99665.78;1715840;81;21915;-74
2022/12/07 16:29:29;;;;;;;29.63;22.20;;;;;;;-1.14;100.00;99662.81;1723104;81;21113;-74
2022/12/07 16:31:56;;;;;;;32.33;21.93;;;;;;;-1.20;100.00;99654.30;1734203;81;20968;-72
2022/12/07 16:34:23;;;;;;;36.77;24.03;;;;;;;-1.23;100.00;99658.59;1735442;82;21134;-79
2022/12/07 16:36:49;;;;;;;30.43;21.43;;;;;;;-1.21;100.00;99652.66;1735241;82;21619;-70
2022/12/07 16:39:18;;;;;;;35.53;21.70;;;;;;;-1.17;100.00;99648.66;1729739;80;21150;-71
2022/12/07 16:41:44;;;;;;;32.77;23.87;;;;;;;-1.18;100.00;99651.80;1754322;80;21087;-70
2022/12/07 16:44:15;;;;;;;34.77;24.97;;;;;;;-1.18;100.00;99649.16;1744691;79;21351;-73
2022/12/07 16:46:43;;;;;;;29.53;23.60;;;;;;;-1.21;100.00;99663.21;1732611;81;21119;-65
2022/12/07 16:49:13;;;;;;;31.60;22.97;;;;;;;-1.20;100.00;99657.73;1761782;80;21634;-68
2022/12/07 16:51:41;;;;;;;33.23;23.30;;;;;;;-1.22;100.00;99660.24;1746104;80;21204;-71
2022/12/07 16:54:10;;;;;;;30.40;24.43;;;;;;;-1.23;100.00;99655.95;1750607;80;21049;-70
2022/12/07 16:56:38;;;;;;;38.00;25.30;;;;;;;-1.23;100.00;99650.67;1744299;80;20955;-66
2022/12/07 16:59:04;;;;;;;37.60;25.27;;;;;;;-1.23;100.00;99652.82;1757718;79;20936;-70
2022/12/07 17:01:31;;;;;;;36.17;27.00;;;;;;;-1.20;100.00;99651.67;1746370;80;21591;-67
2022/12/07 17:03:58;;;;;;;42.00;27.93;;;;;;;-1.14;100.00;99648.30;1771993;79;21345;-71
2022/12/07 17:06:28;;;;;;;35.13;26.70;;;;;;;-1.13;100.00;99656.05;1772137;80;20921;-71
2022/12/07 17:08:56;;;;;;;29.83;23.27;;;;;;;-1.19;100.00;99645.37;1740733;80;20956;-77
2022/12/07 17:11:26;;;;;;;33.47;24.90;;;;;;;-1.21;100.00;99641.61;1738959;80;21061;-76
2022/12/07 17:16:37;;;;;;;34.60;23.43;;;;;;;-1.10;100.00;99651.73;1744438;80;21263;-78
2022/12/07 17:19:07;;;;;;;28.50;23.83;;;;;;;-1.13;100.00;99646.00;1727240;80;21112;-79
2022/12/07 17:21:34;;;;;;;36.97;26.07;;;;;;;-1.16;100.00;99657.73;1743479;80;21441;-83
2022/12/07 17:24:03;;;;;;;35.27;24.63;;;;;;;-1.13;100.00;99652.09;1717466;81;21555;-81
2022/12/07 17:26:30;;;;;;;41.03;25.33;;;;;;;-1.10;100.00;99654.86;1714335;81;21107;-79
2022/12/07 17:28:58;;;;;;;37.73;24.60;;;;;;;-1.08;100.00;99651.56;1729503;81;21280;-86
2022/12/07 17:31:55;;;;;;;41.70;26.33;;;;;;;-1.12;100.00;99651.11;1751435;80;20994;-86
2022/12/07 17:34:25;;;;;;;32.77;23.30;;;;;;;-1.18;100.00;99649.66;1734263;80;21508;-83
2022/12/07 17:36:54;;;;;;;30.60;22.37;;;;;;;-1.25;100.00;99645.59;1746621;79;21553;-82
2022/12/07 17:39:21;;;;;;;33.30;23.00;;;;;;;-1.24;100.00;99644.58;1749938;80;21005;-81
2022/12/07 17:44:33;;;;;;;29.77;21.70;;;;;;;-1.11;100.00;99642.69;1738863;80;21094;-83
2022/12/07 17:47:01;;;;;;;32.70;22.00;;;;;;;-1.09;100.00;99645.95;1729282;82;21082;-77
2022/12/07 17:49:28;;;;;;;24.93;19.90;;;;;;;-1.19;100.00;99636.95;1706613;81;21015;-83
2022/12/07 17:54:39;;;;;;;28.27;20.40;;;;;;;-1.18;100.00;99639.10;1761726;80;21171;-77
2022/12/07 17:57:06;;;;;;;28.50;21.43;;;;;;;-1.15;100.00;99640.09;1742572;81;21534;-76
2022/12/07 17:59:34;;;;;;;29.80;19.83;;;;;;;-1.12;100.00;99645.83;1727974;81;21037;-81
2022/12/07 18:02:01;;;;;;;29.23;21.20;;;;;;;-1.11;100.00;99644.02;1743089;80;21005;-77
2022/12/07 18:04:28;;;;;;;40.30;23.67;;;;;;;-1.10;100.00;99650.91;1762834;80;20943;-74
2022/12/07 18:06:58;;;;;;;37.30;23.27;;;;;;;-1.14;100.00;99651.77;1751016;80;21768;-77
2022/12/07 18:09:24;;;;;;;34.27;22.57;;;;;;;-1.21;100.00;99646.89;1751974;80;21074;-76
2022/12/07 18:11:58;;;;;;;31.37;21.00;;;;;;;-1.23;100.00;99639.62;1753472;80;21037;-80
